Time;durP1;ratioP1;P1;durP2;ratioP2;P2;SDS_P1;SDS_P2;PMS_P1;PMS_P2;Temp;Humidity;BMP_temperature;BMP_pressure;BME280_temperature;BME280_humidity;BME280_pressure;Samples;Min_cycle;Max_cycle;Signal;HPM_P1;HPM_P2
2020/12/19 00:00:10;;;;;;;;;;;2.90;99.90;;;;;;5022570;28;19996;-74
2020/12/19 00:02:35;;;;;;;;;;;2.80;99.90;;;;;;5014447;28;19913;-74
2020/12/19 00:05:02;;;;;;;;;;;2.70;99.90;;;;;;5014282;28;19914;-74
2020/12/19 00:07:27;;;;;;;;;;;2.60;99.90;;;;;;5014075;28;19910;-74
2020/12/19 00:09:53;;;;;;;;;;;2.60;99.90;;;;;;5014718;28;20012;-75
2020/12/19 00:12:22;;;;;;;;;;;2.60;99.90;;;;;;5014212;28;19909;-77
2020/12/19 00:14:47;;;;;;;;;;;2.60;99.90;;;;;;5014686;28;19960;-74
2020/12/19 00:17:13;;;;;;;;;;;2.50;99.90;;;;;;5014210;28;20374;-75
2020/12/19 00:19:38;;;;;;;;;;;2.50;99.90;;;;;;5014826;28;20377;-77
2020/12/19 00:22:05;;;;;;;;;;;2.50;99.90;;;;;;5014318;28;19910;-74
2020/12/19 00:24:30;;;;;;;;;;;2.40;99.90;;;;;;5013019;28;19941;-74
2020/12/19 00:26:56;;;;;;;;;;;2.40;99.90;;;;;;5016576;28;20014;-74
2020/12/19 00:29:21;;;;;;;;;;;2.50;99.90;;;;;;5033865;28;19909;-74
2020/12/19 00:31:47;;;;;;;;;;;2.50;99.90;;;;;;5031747;28;20374;-76
2020/12/19 00:34:12;;;;;;;;;;;2.50;99.90;;;;;;5031672;28;19913;-74
2020/12/19 00:36:38;;;;;;;;;;;2.30;99.90;;;;;;5031427;28;20255;-74
2020/12/19 00:39:05;;;;;;;;;;;2.20;99.90;;;;;;5030529;28;19909;-77
2020/12/19 00:41:30;;;;;;;;;;;2.20;99.90;;;;;;5032169;28;20000;-74
2020/12/19 00:43:55;;;;;;;;;;;2.20;99.90;;;;;;5031833;28;20453;-75
2020/12/19 00:46:22;;;;;;;;;;;2.10;99.90;;;;;;5031745;28;19917;-75
2020/12/19 00:48:47;;;;;;;;;;;2.10;99.90;;;;;;5033629;28;20286;-77
2020/12/19 00:51:14;;;;;;;;;;;2.10;99.90;;;;;;5034037;28;19913;-74
2020/12/19 00:53:40;;;;;;;;;;;2.10;99.90;;;;;;5033870;28;20382;-74
2020/12/19 00:56:05;;;;;;;;;;;2.10;99.90;;;;;;5033565;28;20396;-75
2020/12/19 00:58:31;;;;;;;;;;;2.10;99.90;;;;;;5031187;28;19909;-74
2020/12/19 01:00:56;;;;;;;;;;;2.10;99.90;;;;;;5013893;28;20404;-74
2020/12/19 01:03:22;;;;;;;;;;;2.10;99.90;;;;;;5013780;28;19913;-74
2020/12/19 01:05:47;;;;;;;;;;;2.00;99.90;;;;;;5013479;28;19939;-74
2020/12/19 01:08:13;;;;;;;;;;;1.90;99.90;;;;;;5013947;28;19909;-74
2020/12/19 01:10:38;;;;;;;;;;;1.90;99.90;;;;;;5013788;28;19916;-74
2020/12/19 01:13:04;;;;;;;;;;;1.90;99.90;;;;;;5012362;28;19910;-74
2020/12/19 01:15:29;;;;;;;;;;;1.90;99.90;;;;;;5013804;28;19920;-74
2020/12/19 01:17:55;;;;;;;;;;;1.90;99.90;;;;;;5013150;28;19918;-74
2020/12/19 01:20:20;;;;;;;;;;;2.00;99.90;;;;;;5013582;28;19910;-75
2020/12/19 01:22:45;;;;;;;;;;;2.00;99.90;;;;;;5013310;28;19979;-74
2020/12/19 01:25:11;;;;;;;;;;;2.00;99.90;;;;;;5013442;28;19932;-74
2020/12/19 01:27:37;;;;;;;;;;;2.00;99.90;;;;;;5018336;28;19996;-74
2020/12/19 01:30:03;;;;;;;;;;;2.00;99.90;;;;;;5026844;28;20059;-77
2020/12/19 01:32:28;;;;;;;;;;;2.00;99.90;;;;;;5031715;28;19909;-74
2020/12/19 01:34:53;;;;;;;;;;;2.10;99.90;;;;;;5032886;28;19940;-74
2020/12/19 01:37:19;;;;;;;;;;;2.10;99.90;;;;;;5032568;28;20286;-74
2020/12/19 01:39:44;;;;;;;;;;;2.20;99.90;;;;;;5033009;28;19913;-77
2020/12/19 01:42:10;;;;;;;;;;;2.10;99.90;;;;;;5032918;28;19916;-74
2020/12/19 01:44:36;;;;;;;;;;;2.10;99.90;;;;;;5032966;28;19910;-74
2020/12/19 01:47:02;;;;;;;;;;;2.10;99.90;;;;;;5032717;28;19913;-74
2020/12/19 01:49:29;;;;;;;;;;;2.00;99.90;;;;;;5032757;28;20007;-74
2020/12/19 01:51:59;;;;;;;;;;;2.00;99.90;;;;;;5032617;28;19915;-74
2020/12/19 01:54:24;;;;;;;;;;;2.00;99.90;;;;;;5032742;28;19917;-74
2020/12/19 01:56:51;;;;;;;;;;;2.00;99.90;;;;;;5032303;28;19909;-74
2020/12/19 01:59:17;;;;;;;;;;;1.90;99.90;;;;;;5015612;28;20369;-77
2020/12/19 02:01:49;;;;;;;;;;;1.90;99.90;;;;;;5012702;28;20016;-75
2020/12/19 02:04:15;;;;;;;;;;;1.90;99.90;;;;;;5011533;28;19910;-74
2020/12/19 02:06:43;;;;;;;;;;;1.80;99.90;;;;;;5011260;28;19968;-74
2020/12/19 02:09:08;;;;;;;;;;;1.80;99.90;;;;;;5012823;28;19909;-74
2020/12/19 02:11:34;;;;;;;;;;;1.70;99.90;;;;;;5013082;28;20341;-74
2020/12/19 02:13:59;;;;;;;;;;;1.70;99.90;;;;;;5012422;28;19909;-76
2020/12/19 02:16:25;;;;;;;;;;;1.60;99.90;;;;;;5011102;28;19916;-74
2020/12/19 02:18:50;;;;;;;;;;;1.60;99.90;;;;;;5012559;28;20387;-74
2020/12/19 02:21:16;;;;;;;;;;;1.60;99.90;;;;;;5012512;28;19909;-74
2020/12/19 02:23:41;;;;;;;;;;;1.60;99.90;;;;;;5012472;28;19910;-74
2020/12/19 02:26:07;;;;;;;;;;;1.60;99.90;;;;;;5010861;28;19967;-74
2020/12/19 02:28:32;;;;;;;;;;;1.50;99.90;;;;;;5025509;28;19909;-74
2020/12/19 02:30:58;;;;;;;;;;;1.50;99.90;;;;;;5026450;28;19916;-74
2020/12/19 02:33:23;;;;;;;;;;;1.50;99.90;;;;;;5032040;28;19980;-74
2020/12/19 02:35:48;;;;;;;;;;;1.50;99.90;;;;;;5031620;28;20255;-74
2020/12/19 02:38:14;;;;;;;;;;;1.50;99.90;;;;;;5032040;28;19913;-75
2020/12/19 02:40:39;;;;;;;;;;;1.50;99.90;;;;;;5032050;28;19909;-74
2020/12/19 02:43:05;;;;;;;;;;;1.50;99.90;;;;;;5031785;28;19956;-74
2020/12/19 02:45:30;;;;;;;;;;;1.40;99.90;;;;;;5031782;28;20255;-74
2020/12/19 02:47:56;;;;;;;;;;;1.40;99.90;;;;;;5030769;28;19909;-74
2020/12/19 02:50:21;;;;;;;;;;;1.40;99.90;;;;;;5031810;28;19924;-74
2020/12/19 02:52:47;;;;;;;;;;;1.40;99.90;;;;;;5031772;28;19956;-74
2020/12/19 02:55:12;;;;;;;;;;;1.40;99.90;;;;;;5030533;28;20279;-77
2020/12/19 02:57:37;;;;;;;;;;;1.40;99.90;;;;;;5028009;28;19909;-74
2020/12/19 03:00:04;;;;;;;;;;;1.40;99.90;;;;;;5019967;28;20047;-74
2020/12/19 03:02:29;;;;;;;;;;;1.30;99.90;;;;;;5010682;28;19964;-74
2020/12/19 03:04:55;;;;;;;;;;;1.30;99.90;;;;;;5012029;28;19988;-74
2020/12/19 03:07:20;;;;;;;;;;;1.30;99.90;;;;;;5011681;28;19914;-74
2020/12/19 03:09:46;;;;;;;;;;;1.30;99.90;;;;;;5012060;28;20405;-74
2020/12/19 03:12:11;;;;;;;;;;;1.30;99.90;;;;;;5011867;28;19909;-76
2020/12/19 03:14:37;;;;;;;;;;;1.30;99.90;;;;;;5011804;28;20056;-74
2020/12/19 03:17:02;;;;;;;;;;;1.30;99.90;;;;;;5011627;28;19929;-74
2020/12/19 03:19:28;;;;;;;;;;;1.30;99.90;;;;;;5011899;28;19909;-74
2020/12/19 03:21:53;;;;;;;;;;;1.20;99.90;;;;;;5011828;28;19909;-74
2020/12/19 03:24:18;;;;;;;;;;;1.20;99.90;;;;;;5011945;28;20373;-75
2020/12/19 03:26:44;;;;;;;;;;;1.10;99.90;;;;;;5012398;28;19914;-74
2020/12/19 03:29:09;;;;;;;;;;;1.10;99.90;;;;;;5023650;28;19916;-74
2020/12/19 03:31:35;;;;;;;;;;;1.10;99.90;;;;;;5031169;28;20308;-74
2020/12/19 03:34:00;;;;;;;;;;;1.10;99.90;;;;;;5031297;28;19951;-74
2020/12/19 03:36:26;;;;;;;;;;;1.00;99.90;;;;;;5029851;28;19916;-74
2020/12/19 03:38:52;;;;;;;;;;;1.00;99.90;;;;;;5031409;28;20362;-74
2020/12/19 03:41:17;;;;;;;;;;;1.00;99.90;;;;;;5031448;28;19917;-75
2020/12/19 03:43:43;;;;;;;;;;;1.00;99.90;;;;;;5031253;28;20388;-74
2020/12/19 03:46:10;;;;;;;;;;;1.00;99.90;;;;;;5030987;28;19914;-74
2020/12/19 03:48:36;;;;;;;;;;;1.00;99.90;;;;;;5031460;28;19955;-74
2020/12/19 03:51:01;;;;;;;;;;;1.00;99.90;;;;;;5031229;28;19917;-76
2020/12/19 03:53:27;;;;;;;;;;;0.90;99.90;;;;;;5031299;28;19909;-74
2020/12/19 03:55:52;;;;;;;;;;;0.90;99.90;;;;;;5030846;28;20321;-75
2020/12/19 03:58:18;;;;;;;;;;;0.90;99.90;;;;;;5030484;28;19916;-74
2020/12/19 04:00:43;;;;;;;;;;;0.90;99.90;;;;;;5026083;28;19910;-74
2020/12/19 04:03:09;;;;;;;;;;;0.90;99.90;;;;;;5034690;28;20424;-74
2020/12/19 04:05:34;;;;;;;;;;;0.90;99.90;;;;;;5034543;28;19917;-75
2020/12/19 04:07:59;;;;;;;;;;;0.90;99.90;;;;;;5034648;28;19910;-74
2020/12/19 04:10:25;;;;;;;;;;;0.90;99.90;;;;;;5034730;28;19948;-74
2020/12/19 04:12:50;;;;;;;;;;;0.90;99.90;;;;;;5034442;28;20266;-74
2020/12/19 04:15:22;;;;;;;;;;;0.90;99.90;;;;;;5034544;28;19909;-74
2020/12/19 04:17:48;;;;;;;;;;;0.90;99.90;;;;;;5034210;28;19998;-76
2020/12/19 04:20:14;;;;;;;;;;;0.80;99.90;;;;;;5033177;28;19913;-74
2020/12/19 04:22:39;;;;;;;;;;;0.80;99.90;;;;;;5034482;28;20411;-74
2020/12/19 04:25:05;;;;;;;;;;;0.80;99.90;;;;;;5034280;28;19959;-74
2020/12/19 04:27:30;;;;;;;;;;;0.90;99.90;;;;;;5028949;28;19913;-77
2020/12/19 04:29:56;;;;;;;;;;;0.90;99.90;;;;;;5034183;28;19953;-74
2020/12/19 04:32:21;;;;;;;;;;;0.90;99.90;;;;;;5034420;28;19936;-74
2020/12/19 04:34:47;;;;;;;;;;;0.90;99.90;;;;;;5034220;28;20027;-74
2020/12/19 04:37:12;;;;;;;;;;;0.90;99.90;;;;;;5033863;28;19956;-74
2020/12/19 04:39:38;;;;;;;;;;;0.80;99.90;;;;;;5034177;28;19909;-74
2020/12/19 04:42:03;;;;;;;;;;;0.80;99.90;;;;;;5033829;28;19909;-74
2020/12/19 04:44:29;;;;;;;;;;;0.80;99.90;;;;;;5034058;28;19909;-76
2020/12/19 04:46:55;;;;;;;;;;;0.90;99.90;;;;;;5033387;28;20294;-74
2020/12/19 04:49:20;;;;;;;;;;;0.90;99.90;;;;;;5034046;28;19920;-74
2020/12/19 04:51:46;;;;;;;;;;;0.90;99.90;;;;;;5033932;28;19913;-74
2020/12/19 04:54:11;;;;;;;;;;;0.80;99.90;;;;;;5033881;28;19924;-74
2020/12/19 04:56:37;;;;;;;;;;;0.80;99.90;;;;;;5032113;28;19909;-74
2020/12/19 04:59:03;;;;;;;;;;;0.80;99.90;;;;;;5013792;28;19964;-74
2020/12/19 05:01:29;;;;;;;;;;;0.80;99.90;;;;;;5032295;28;20450;-74
2020/12/19 05:03:54;;;;;;;;;;;0.80;99.90;;;;;;5033572;28;20000;-74
2020/12/19 05:06:24;;;;;;;;;;;0.80;99.90;;;;;;5031896;28;19919;-74
2020/12/19 05:08:50;;;;;;;;;;;0.80;99.90;;;;;;5033563;28;19971;-75
2020/12/19 05:11:18;;;;;;;;;;;0.80;99.90;;;;;;5032563;28;19913;-74
2020/12/19 05:13:44;;;;;;;;;;;0.80;99.90;;;;;;5033405;28;19916;-74
2020/12/19 05:16:10;;;;;;;;;;;0.70;99.90;;;;;;5033072;28;19908;-74
2020/12/19 05:18:36;;;;;;;;;;;0.70;99.90;;;;;;5032109;28;20305;-75
2020/12/19 05:21:02;;;;;;;;;;;0.70;99.90;;;;;;5033305;28;19909;-76
2020/12/19 05:23:28;;;;;;;;;;;0.60;99.90;;;;;;5033173;28;20358;-74
2020/12/19 05:25:55;;;;;;;;;;;0.60;99.90;;;;;;5032826;28;19939;-74
2020/12/19 05:28:20;;;;;;;;;;;0.60;99.90;;;;;;5023711;28;19921;-74
2020/12/19 05:30:46;;;;;;;;;;;0.60;99.90;;;;;;5013251;28;20010;-74
2020/12/19 05:33:12;;;;;;;;;;;0.60;99.90;;;;;;5013154;28;20436;-76
2020/12/19 05:35:38;;;;;;;;;;;0.60;99.90;;;;;;5013076;28;19913;-74
2020/12/19 05:38:05;;;;;;;;;;;0.60;99.90;;;;;;5013134;28;19932;-74
2020/12/19 05:40:31;;;;;;;;;;;0.60;99.90;;;;;;5011783;28;20259;-74
2020/12/19 05:42:56;;;;;;;;;;;0.60;99.90;;;;;;5013072;28;19910;-74
2020/12/19 05:45:23;;;;;;;;;;;0.60;99.90;;;;;;5012785;28;19913;-74
2020/12/19 05:47:49;;;;;;;;;;;0.60;99.90;;;;;;5012684;28;19910;-74
2020/12/19 05:50:14;;;;;;;;;;;0.60;99.90;;;;;;5012837;28;19968;-75
2020/12/19 05:52:40;;;;;;;;;;;0.50;99.90;;;;;;5012784;28;19909;-74
2020/12/19 05:55:10;;;;;;;;;;;0.50;99.90;;;;;;5012886;28;19910;-74
2020/12/19 05:57:37;;;;;;;;;;;0.50;99.90;;;;;;5020515;28;20285;-74
2020/12/19 06:00:06;;;;;;;;;;;0.60;99.90;;;;;;5032365;28;19913;-73
2020/12/19 06:02:32;;;;;;;;;;;0.60;99.90;;;;;;5031189;28;19909;-74
2020/12/19 06:04:59;;;;;;;;;;;0.70;99.90;;;;;;5032559;28;20326;-74
2020/12/19 06:07:27;;;;;;;;;;;0.80;99.90;;;;;;5032293;28;19917;-74
2020/12/19 06:09:52;;;;;;;;;;;0.90;99.90;;;;;;5032443;28;20410;-74
2020/12/19 06:12:24;;;;;;;;;;;0.80;99.90;;;;;;5032442;28;19940;-74
2020/12/19 06:14:52;;;;;;;;;;;0.80;99.90;;;;;;5032374;28;19916;-74
2020/12/19 06:17:23;;;;;;;;;;;0.80;99.90;;;;;;5031920;28;19909;-74
2020/12/19 06:19:49;;;;;;;;;;;0.90;99.90;;;;;;5032262;28;19909;-74
2020/12/19 06:22:14;;;;;;;;;;;0.80;99.90;;;;;;5032024;28;20385;-74
2020/12/19 06:24:47;;;;;;;;;;;0.80;99.90;;;;;;5032197;28;20267;-74
2020/12/19 06:27:21;;;;;;;;;;;0.80;99.90;;;;;;5031640;28;20374;-74
2020/12/19 06:29:47;;;;;;;;;;;0.80;99.90;;;;;;5012152;28;19910;-74
2020/12/19 06:32:22;;;;;;;;;;;0.80;99.90;;;;;;5012201;28;20016;-74
2020/12/19 06:35:01;;;;;;;;;;;0.80;99.90;;;;;;5012323;28;19909;-74
2020/12/19 06:37:27;;;;;;;;;;;0.80;99.90;;;;;;5010613;28;19909;-74
2020/12/19 06:40:08;;;;;;;;;;;0.90;99.90;;;;;;5012283;28;19925;-74
2020/12/19 06:42:34;;;;;;;;;;;0.80;99.90;;;;;;5012261;28;19948;-74
2020/12/19 06:45:31;;;;;;;;;;;0.80;99.90;;;;;;5012165;28;19952;-74
2020/12/19 06:47:57;;;;;;;;;;;0.80;99.90;;;;;;4989228;28;19917;-74
2020/12/19 06:50:23;;;;;;;;;;;0.80;99.90;;;;;;5010861;28;19924;-74
2020/12/19 06:52:56;;;;;;;;;;;0.70;99.90;;;;;;5012197;28;20008;-74
2020/12/19 06:55:22;;;;;;;;;;;0.70;99.90;;;;;;5010660;28;19914;-74
2020/12/19 06:57:52;;;;;;;;;;;0.60;99.90;;;;;;5021493;28;19959;-74
2020/12/19 07:00:25;;;;;;;;;;;0.60;99.90;;;;;;5031610;28;19951;-74
2020/12/19 07:02:57;;;;;;;;;;;0.60;99.90;;;;;;5031805;28;20365;-74
2020/12/19 07:05:26;;;;;;;;;;;0.60;99.90;;;;;;5031701;28;20429;-74
2020/12/19 07:07:52;;;;;;;;;;;0.60;99.90;;;;;;5031435;28;19976;-74
2020/12/19 07:10:34;;;;;;;;;;;0.50;99.90;;;;;;5030760;28;19923;-74
2020/12/19 07:12:59;;;;;;;;;;;0.50;99.90;;;;;;5031702;28;19915;-74
2020/12/19 07:15:43;;;;;;;;;;;0.50;99.90;;;;;;5031595;28;19953;-74
2020/12/19 07:18:22;;;;;;;;;;;0.40;99.90;;;;;;5031652;28;19909;-74
2020/12/19 07:20:55;;;;;;;;;;;0.40;99.90;;;;;;5031829;28;19909;-74
2020/12/19 07:23:21;;;;;;;;;;;0.40;99.90;;;;;;5031520;28;19956;-74
2020/12/19 07:25:46;;;;;;;;;;;0.40;99.90;;;;;;5031241;28;19913;-77
2020/12/19 07:28:12;;;;;;;;;;;0.40;99.90;;;;;;5031494;28;19909;-74
2020/12/19 07:30:40;;;;;;;;;;;0.40;99.90;;;;;;5031316;28;19920;-74
2020/12/19 07:33:06;;;;;;;;;;;0.40;99.90;;;;;;5031539;28;19909;-74
2020/12/19 07:35:31;;;;;;;;;;;0.50;99.90;;;;;;5035239;28;19972;-74
2020/12/19 07:37:57;;;;;;;;;;;0.60;99.90;;;;;;5035166;28;19917;-74
2020/12/19 07:40:23;;;;;;;;;;;0.60;99.90;;;;;;5035304;28;19909;-74
2020/12/19 07:42:57;;;;;;;;;;;0.60;99.90;;;;;;5033900;28;20365;-74
2020/12/19 07:45:23;;;;;;;;;;;0.50;99.90;;;;;;5033684;28;19916;-74
2020/12/19 07:47:48;;;;;;;;;;;0.50;99.90;;;;;;5034913;28;19909;-74
2020/12/19 07:50:22;;;;;;;;;;;0.60;99.90;;;;;;5035289;28;19917;-74
2020/12/19 07:52:47;;;;;;;;;;;0.50;99.90;;;;;;5034731;28;19975;-75
2020/12/19 07:55:12;;;;;;;;;;;0.60;99.90;;;;;;5034888;28;20374;-74
2020/12/19 07:57:38;;;;;;;;;;;0.60;99.90;;;;;;5030715;28;19910;-74
2020/12/19 08:00:04;;;;;;;;;;;0.60;99.90;;;;;;5029851;28;19909;-74
2020/12/19 08:02:29;;;;;;;;;;;0.60;99.90;;;;;;5034541;28;19917;-76
2020/12/19 08:04:56;;;;;;;;;;;0.60;99.90;;;;;;5033332;28;19913;-74
2020/12/19 08:07:22;;;;;;;;;;;0.60;99.90;;;;;;5034089;28;19913;-74
2020/12/19 08:09:48;;;;;;;;;;;0.60;99.90;;;;;;5034555;28;20420;-74
2020/12/19 08:12:14;;;;;;;;;;;0.60;99.90;;;;;;5034288;28;19909;-74
2020/12/19 08:14:40;;;;;;;;;;;0.70;99.90;;;;;;5034398;28;19917;-74
2020/12/19 08:17:13;;;;;;;;;;;0.70;99.90;;;;;;5034075;28;20362;-74
2020/12/19 08:19:39;;;;;;;;;;;0.70;99.90;;;;;;5034319;28;19909;-74
2020/12/19 08:22:06;;;;;;;;;;;0.80;99.90;;;;;;5032943;28;19913;-74
2020/12/19 08:24:31;;;;;;;;;;;0.90;99.90;;;;;;5034358;28;19909;-74
2020/12/19 08:27:15;;;;;;;;;;;1.00;99.90;;;;;;5033682;28;20114;-74
2020/12/19 08:29:41;;;;;;;;;;;1.10;99.90;;;;;;5034123;28;19916;-74
2020/12/19 08:32:08;;;;;;;;;;;1.20;99.90;;;;;;5034070;28;19909;-74
2020/12/19 08:34:33;;;;;;;;;;;1.20;99.90;;;;;;5034077;28;19962;-74
2020/12/19 08:36:59;;;;;;;;;;;1.30;99.90;;;;;;5032401;28;20004;-74
2020/12/19 08:39:24;;;;;;;;;;;1.40;99.90;;;;;;5033855;28;19909;-77
2020/12/19 08:41:50;;;;;;;;;;;1.80;99.90;;;;;;5033856;28;19917;-74
2020/12/19 08:44:22;;;;;;;;;;;2.20;99.90;;;;;;5033752;28;19913;-74
2020/12/19 08:47:00;;;;;;;;;;;2.70;99.90;;;;;;5032079;28;20362;-74
2020/12/19 08:49:25;;;;;;;;;;;3.50;99.90;;;;;;5033335;28;19971;-74
2020/12/19 08:51:51;;;;;;;;;;;4.30;99.90;;;;;;5033390;28;19953;-74
2020/12/19 08:54:16;;;;;;;;;;;5.20;99.90;;;;;;5033601;28;19916;-74
2020/12/19 08:56:43;;;;;;;;;;;5.90;99.90;;;;;;5033042;28;19909;-74
2020/12/19 08:59:08;;;;;;;;;;;6.60;99.90;;;;;;5027560;28;19914;-74
2020/12/19 09:01:34;;;;;;;;;;;7.20;99.90;;;;;;5021083;28;20551;-74
2020/12/19 09:04:07;;;;;;;;;;;7.70;99.90;;;;;;5023861;28;19910;-75
2020/12/19 09:06:44;;;;;;;;;;;8.20;99.90;;;;;;5021981;28;19957;-74
2020/12/19 09:09:15;;;;;;;;;;;8.80;99.90;;;;;;5021381;28;19916;-75
2020/12/19 09:11:40;;;;;;;;;;;9.50;99.90;;;;;;5021871;28;19914;-75
2020/12/19 09:14:07;;;;;;;;;;;10.10;99.90;;;;;;5024570;28;19910;-75
2020/12/19 09:16:33;;;;;;;;;;;10.60;99.90;;;;;;5021610;28;19910;-77
2020/12/19 09:18:58;;;;;;;;;;;11.00;99.90;;;;;;5020901;28;19909;-75
2020/12/19 09:21:24;;;;;;;;;;;11.40;99.90;;;;;;5022192;28;19914;-75
2020/12/19 09:23:49;;;;;;;;;;;11.70;99.90;;;;;;5022033;28;19994;-76
2020/12/19 09:26:15;;;;;;;;;;;12.00;99.90;;;;;;5023085;28;19928;-76
2020/12/19 09:28:40;;;;;;;;;;;12.40;99.90;;;;;;5023356;28;20328;-75
2020/12/19 09:31:06;;;;;;;;;;;12.80;99.90;;;;;;5023275;28;19916;-75
2020/12/19 09:33:31;;;;;;;;;;;13.00;99.90;;;;;;5028236;28;19909;-78
2020/12/19 09:35:57;;;;;;;;;;;13.30;99.90;;;;;;5031884;28;20544;-75
2020/12/19 09:38:22;;;;;;;;;;;13.50;99.90;;;;;;5032737;28;19909;-76
2020/12/19 09:40:48;;;;;;;;;;;13.50;99.90;;;;;;5031062;28;19955;-76
2020/12/19 09:43:13;;;;;;;;;;;13.60;99.90;;;;;;5032621;28;19913;-75
2020/12/19 09:45:39;;;;;;;;;;;13.50;99.90;;;;;;5032223;28;20446;-78
2020/12/19 09:48:05;;;;;;;;;;;13.50;99.90;;;;;;5032526;28;20101;-75
2020/12/19 09:50:32;;;;;;;;;;;13.40;99.90;;;;;;5032425;28;19996;-76
2020/12/19 09:52:57;;;;;;;;;;;13.20;99.90;;;;;;5032513;28;20392;-75
2020/12/19 09:55:23;;;;;;;;;;;13.10;99.90;;;;;;5032405;28;19913;-75
2020/12/19 09:57:49;;;;;;;;;;;13.10;99.90;;;;;;5031825;28;19916;-75
2020/12/19 10:00:14;;;;;;;;;;;13.10;99.90;;;;;;5023850;28;20393;-76
2020/12/19 10:02:41;;;;;;;;;;;13.20;99.90;;;;;;5012481;28;19978;-78
2020/12/19 10:05:06;;;;;;;;;;;13.30;99.90;;;;;;5012583;28;19916;-79
2020/12/19 10:07:32;;;;;;;;;;;13.40;99.90;;;;;;5010900;28;19914;-75
2020/12/19 10:09:57;;;;;;;;;;;13.30;99.90;;;;;;5026818;28;19913;-75
2020/12/19 10:12:23;;;;;;;;;;;13.30;99.90;;;;;;5031882;28;19909;-75
2020/12/19 10:14:48;;;;;;;;;;;13.40;99.90;;;;;;5031612;28;19917;-77
2020/12/19 10:17:14;;;;;;;;;;;13.40;99.90;;;;;;5030055;28;19909;-75
2020/12/19 10:19:39;;;;;;;;;;;13.30;99.90;;;;;;5031572;28;20440;-75
2020/12/19 10:22:05;;;;;;;;;;;13.30;99.90;;;;;;5030229;28;19909;-75
2020/12/19 10:24:30;;;;;;;;;;;13.20;99.90;;;;;;5031644;28;19909;-77
2020/12/19 10:26:56;;;;;;;;;;;13.10;99.90;;;;;;5031348;28;19913;-75
2020/12/19 10:29:22;;;;;;;;;;;13.00;99.90;;;;;;5031383;28;19960;-75
2020/12/19 10:31:47;;;;;;;;;;;13.00;99.90;;;;;;5031216;28;19956;-76
2020/12/19 10:34:13;;;;;;;;;;;13.00;99.90;;;;;;5031547;28;19951;-75
2020/12/19 10:36:38;;;;;;;;;;;13.00;99.90;;;;;;5031230;28;20000;-75
2020/12/19 10:39:04;;;;;;;;;;;12.90;99.90;;;;;;5031496;28;19955;-75
2020/12/19 10:41:29;;;;;;;;;;;12.70;99.90;;;;;;5031707;28;19913;-76
2020/12/19 10:43:55;;;;;;;;;;;12.60;99.90;;;;;;5030936;28;19913;-77
2020/12/19 10:46:21;;;;;;;;;;;12.50;99.90;;;;;;5029854;28;19932;-78
2020/12/19 10:48:47;;;;;;;;;;;12.70;99.90;;;;;;5030401;28;19913;-75
2020/12/19 10:51:12;;;;;;;;;;;12.70;99.90;;;;;;5032013;28;20378;-75
2020/12/19 10:53:39;;;;;;;;;;;12.80;99.90;;;;;;5031699;28;19909;-75
2020/12/19 10:56:04;;;;;;;;;;;12.80;99.90;;;;;;5031593;28;20305;-75
2020/12/19 10:58:31;;;;;;;;;;;12.90;99.90;;;;;;5031750;28;19917;-75
2020/12/19 11:00:57;;;;;;;;;;;12.90;99.90;;;;;;5031770;28;19909;-76
2020/12/19 11:03:22;;;;;;;;;;;12.90;99.90;;;;;;5030431;28;20009;-75
2020/12/19 11:05:47;;;;;;;;;;;12.80;99.90;;;;;;5031442;28;19913;-77
2020/12/19 11:08:13;;;;;;;;;;;12.90;99.90;;;;;;5031902;28;20435;-75
2020/12/19 11:10:41;;;;;;;;;;;12.90;99.90;;;;;;5035897;28;19917;-75
2020/12/19 11:13:06;;;;;;;;;;;12.80;99.90;;;;;;5035750;28;19917;-75
2020/12/19 11:15:32;;;;;;;;;;;12.60;99.90;;;;;;5034355;28;19909;-75
2020/12/19 11:17:58;;;;;;;;;;;12.50;99.90;;;;;;5035424;28;19963;-75
2020/12/19 11:20:23;;;;;;;;;;;12.30;99.90;;;;;;5035786;28;19916;-75
2020/12/19 11:22:49;;;;;;;;;;;12.10;99.90;;;;;;5035503;28;19916;-75
2020/12/19 11:25:14;;;;;;;;;;;12.10;99.90;;;;;;5035632;28;20274;-75
2020/12/19 11:27:40;;;;;;;;;;;12.10;99.90;;;;;;5035133;28;19913;-76
2020/12/19 11:30:05;;;;;;;;;;;12.00;99.90;;;;;;5027259;28;19928;-75
2020/12/19 11:32:31;;;;;;;;;;;11.90;99.90;;;;;;5035790;28;20397;-75
2020/12/19 11:34:56;;;;;;;;;;;12.00;99.90;;;;;;5035409;28;19920;-75
2020/12/19 11:37:22;;;;;;;;;;;12.00;99.90;;;;;;5035016;28;19909;-75
2020/12/19 11:39:48;;;;;;;;;;;12.00;99.90;;;;;;5034128;28;19909;-75
2020/12/19 11:42:13;;;;;;;;;;;12.00;99.90;;;;;;5035286;28;19910;-75
2020/12/19 11:44:39;;;;;;;;;;;12.00;99.90;;;;;;5033932;28;19909;-76
2020/12/19 11:47:04;;;;;;;;;;;12.00;99.90;;;;;;5034775;28;19913;-75
2020/12/19 11:49:29;;;;;;;;;;;11.90;99.90;;;;;;5035085;28;19958;-75
2020/12/19 11:51:58;;;;;;;;;;;11.90;99.90;;;;;;5035003;28;19913;-75
2020/12/19 11:54:23;;;;;;;;;;;12.00;99.90;;;;;;5035156;28;19917;-75
2020/12/19 11:56:49;;;;;;;;;;;12.00;99.70;;;;;;5034645;28;19909;-75
2020/12/19 11:59:14;;;;;;;;;;;11.90;99.20;;;;;;5018138;28;19909;-75
2020/12/19 12:01:40;;;;;;;;;;;11.90;99.90;;;;;;5014825;28;19909;-75
2020/12/19 12:04:05;;;;;;;;;;;11.90;99.90;;;;;;5015041;28;20338;-75
2020/12/19 12:06:32;;;;;;;;;;;11.80;99.90;;;;;;5014573;28;19920;-75
2020/12/19 12:09:02;;;;;;;;;;;11.70;99.60;;;;;;5014961;28;19959;-75
2020/12/19 12:11:28;;;;;;;;;;;11.60;99.90;;;;;;5015382;28;19964;-76
2020/12/19 12:13:53;;;;;;;;;;;11.70;99.90;;;;;;5014796;28;19913;-76
2020/12/19 12:16:19;;;;;;;;;;;11.60;99.90;;;;;;5014425;28;19916;-77
2020/12/19 12:18:45;;;;;;;;;;;11.50;99.90;;;;;;5014725;28;19916;-75
2020/12/19 12:21:10;;;;;;;;;;;11.40;99.90;;;;;;5014505;28;19917;-75
2020/12/19 12:23:35;;;;;;;;;;;11.30;99.90;;;;;;5022468;28;19913;-76
2020/12/19 12:26:01;;;;;;;;;;;11.10;99.90;;;;;;5024448;28;19917;-75
2020/12/19 12:28:26;;;;;;;;;;;11.00;99.90;;;;;;5023737;28;19910;-76
2020/12/19 12:30:52;;;;;;;;;;;10.80;99.90;;;;;;5030908;28;19913;-75
2020/12/19 12:33:17;;;;;;;;;;;10.70;99.90;;;;;;5032557;28;20289;-77
2020/12/19 12:35:43;;;;;;;;;;;10.60;99.90;;;;;;5033080;28;20389;-76
2020/12/19 12:38:08;;;;;;;;;;;10.50;99.90;;;;;;5033640;28;19909;-75
2020/12/19 12:40:34;;;;;;;;;;;10.50;99.90;;;;;;5030453;28;19953;-77
2020/12/19 12:42:59;;;;;;;;;;;10.50;99.90;;;;;;5033256;28;20301;-75
2020/12/19 12:45:25;;;;;;;;;;;10.50;99.90;;;;;;5033632;28;19917;-75
2020/12/19 12:47:50;;;;;;;;;;;10.50;99.90;;;;;;5033788;28;19909;-76
2020/12/19 12:50:16;;;;;;;;;;;10.60;99.90;;;;;;5033967;28;20354;-77
2020/12/19 12:52:42;;;;;;;;;;;10.60;99.90;;;;;;5033880;28;19913;-75
2020/12/19 12:55:07;;;;;;;;;;;10.50;99.90;;;;;;5033950;28;19916;-75
2020/12/19 12:57:35;;;;;;;;;;;10.50;99.90;;;;;;5030664;28;19922;-75
2020/12/19 13:00:00;;;;;;;;;;;10.60;99.90;;;;;;5013675;28;19916;-76
2020/12/19 13:02:26;;;;;;;;;;;10.60;99.90;;;;;;5013995;28;19913;-75
2020/12/19 13:04:52;;;;;;;;;;;10.60;99.90;;;;;;5012552;28;20008;-75
2020/12/19 13:07:18;;;;;;;;;;;10.60;99.90;;;;;;5013548;28;19913;-75
2020/12/19 13:09:44;;;;;;;;;;;10.70;99.90;;;;;;5014005;28;19932;-75
2020/12/19 13:12:09;;;;;;;;;;;10.70;99.90;;;;;;5013814;28;19915;-75
2020/12/19 13:14:34;;;;;;;;;;;10.70;99.90;;;;;;5013748;28;19964;-76
2020/12/19 13:17:01;;;;;;;;;;;10.70;99.90;;;;;;5013445;28;19909;-75
2020/12/19 13:19:26;;;;;;;;;;;10.60;99.90;;;;;;5013683;28;20323;-77
2020/12/19 13:21:52;;;;;;;;;;;10.70;99.90;;;;;;5013585;28;20032;-75
2020/12/19 13:24:17;;;;;;;;;;;10.60;99.90;;;;;;5013718;28;19932;-75
2020/12/19 13:26:46;;;;;;;;;;;10.60;99.90;;;;;;5013870;28;19920;-76
2020/12/19 13:29:12;;;;;;;;;;;10.70;99.90;;;;;;5033465;28;20354;-75
2020/12/19 13:31:42;;;;;;;;;;;10.60;99.90;;;;;;5032377;28;19909;-76
2020/12/19 13:34:08;;;;;;;;;;;10.60;99.90;;;;;;5033426;28;19916;-75
2020/12/19 13:36:34;;;;;;;;;;;10.60;99.90;;;;;;5032891;28;19909;-75
2020/12/19 13:39:00;;;;;;;;;;;10.60;99.90;;;;;;5031792;28;20385;-76
2020/12/19 13:41:25;;;;;;;;;;;10.60;99.90;;;;;;5033034;28;19913;-76
2020/12/19 13:43:52;;;;;;;;;;;10.70;99.90;;;;;;5032768;28;19913;-76
2020/12/19 13:46:17;;;;;;;;;;;10.60;99.90;;;;;;5032489;28;19913;-76
2020/12/19 13:48:43;;;;;;;;;;;10.70;99.90;;;;;;5032764;28;19971;-76
2020/12/19 13:51:08;;;;;;;;;;;10.60;99.90;;;;;;5031585;28;19952;-75
2020/12/19 13:53:34;;;;;;;;;;;10.60;99.90;;;;;;5032793;28;19909;-76
2020/12/19 13:56:00;;;;;;;;;;;10.60;99.90;;;;;;5031739;28;21330;-75
2020/12/19 13:58:26;;;;;;;;;;;10.60;99.90;;;;;;5022670;28;19941;-76
2020/12/19 14:00:51;;;;;;;;;;;10.70;99.90;;;;;;5012909;28;20363;-77
2020/12/19 14:03:17;;;;;;;;;;;10.70;99.90;;;;;;5012881;28;19910;-75
2020/12/19 14:05:42;;;;;;;;;;;10.70;99.90;;;;;;5011252;28;20350;-75
2020/12/19 14:08:08;;;;;;;;;;;10.70;99.90;;;;;;5012891;28;19909;-76
2020/12/19 14:10:33;;;;;;;;;;;10.70;99.90;;;;;;5012794;28;19909;-75
2020/12/19 14:12:58;;;;;;;;;;;10.70;99.90;;;;;;5012619;28;19917;-76
2020/12/19 14:15:24;;;;;;;;;;;10.60;99.90;;;;;;5011425;28;20272;-75
2020/12/19 14:17:50;;;;;;;;;;;10.60;99.90;;;;;;5012336;28;19996;-75
2020/12/19 14:20:15;;;;;;;;;;;10.60;99.90;;;;;;5012546;28;19913;-75